Latest Weather Observations for Salmon Gums RS

IDW60801

Issued at 1:02 pm WST Saturday 28 February 2015 (issued every 30 minutes, with the page automatically refreshed every 10 minutes)

About weather observations | Map of weather stations | Latest weather observations for WA | Other Formats
Station Details ID: 012071 Name: SALMON GUMS RES.STN. Lat: -32.99 Lon: 121.62 Height: 249.0 m
Data from the previous 72 hours. | See also: Recent months at Salmon Gums RS
Date/Time
WST
Temp
°C
App
Temp
°C
Dew
Point
Rel
Hum
%
Delta-T
°C
Wind Press
QNH
hPa
Press
MSL
hPa
Rain
since 9 am
mm
Dir
 
Spd
km/h
Gust
km/h
Spd
kts
Gust
kts
28/01:00pm 23.0 20.5 13.5 55 5.6 S 19 30 10 16 - - 0.0
28/12:30pm 22.2 19.2 13.8 59 4.9 S 22 32 12 17 - - 0.0
28/12:00pm 21.9 19.2 13.5 59 4.9 S 20 28 11 15 - - 0.0
28/11:30am 21.5 18.9 13.9 62 4.5 SSE 20 28 11 15 - - 0.0
28/11:00am 21.4 17.8 14.3 64 4.2 S 26 33 14 18 - - 0.0
28/10:30am 21.3 19.6 13.5 61 4.5 S 15 20 8 11 - - 0.0
28/10:00am 21.0 20.8 14.6 67 3.8 SSE 9 13 5 7 - - 0.0
28/09:30am 20.2 19.0 14.1 68 3.6 S 13 20 7 11 - - 0.0
28/09:00am 18.7 17.0 14.6 77 2.4 SSW 17 24 9 13 - - 0.2
28/08:30am 18.2 17.4 15.1 82 1.8 SSW 13 20 7 11 - - 0.2
28/08:00am 16.9 16.7 15.8 93 0.7 SSW 11 15 6 8 - - 0.2
28/07:30am 16.4 16.1 15.4 94 0.6 SSW 11 15 6 8 - - 0.2
28/07:00am 15.6 15.8 14.6 94 0.6 SW 7 13 4 7 - - 0.0
28/06:30am 14.7 15.1 13.7 94 0.6 WSW 4 7 2 4 - - 0.0
28/06:00am 13.6 13.3 12.7 94 0.5 WSW 6 7 3 4 - - 0.0
28/05:30am 13.7 13.2 12.8 94 0.5 SW 7 11 4 6 - - 0.0
28/05:00am 13.2 12.8 12.3 94 0.5 SW 6 6 3 3 - - 0.0
28/04:30am 13.5 13.0 12.6 94 0.5 SW 7 11 4 6 - - 0.0
28/04:00am 13.3 12.7 12.4 94 0.5 SW 7 11 4 6 - - 0.0
28/03:30am 11.4 10.7 10.1 92 0.7 W 4 4 2 2 - - 0.0
28/03:00am 12.2 11.7 10.9 92 0.7 WNW 4 6 2 3 - - 0.0
28/02:30am 13.8 13.4 12.5 92 0.7 SW 6 7 3 4 - - 0.0
28/02:00am 14.2 13.8 12.9 92 0.7 SW 7 11 4 6 - - 0.0
28/01:30am 14.3 14.1 12.9 91 0.8 SSW 6 9 3 5 - - 0.0
28/01:00am 14.4 14.5 12.8 90 0.9 SW 4 7 2 4 - - 0.0
28/12:30am 14.9 14.7 13.1 89 1.0 SW 6 9 3 5 - - 0.0
28/12:00am 15.4 15.3 13.4 88 1.1 SSW 6 9 3 5 - - 0.0
 
Date/Time
WST
Temp
°C
App
Temp
°C
Dew
Point
Rel
Hum
%
Delta-T
°C
Wind Press
QNH
hPa
Press
MSL
hPa
Rain
since 9 am
mm
Dir
 
Spd
km/h
Gust
km/h
Spd
kts
Gust
kts
27/11:30pm 15.9 15.4 13.7 87 1.3 SSW 9 13 5 7 - - 0.0
27/11:00pm 16.6 15.5 14.2 86 1.4 SSW 13 22 7 12 - - 0.0
27/10:30pm 17.0 15.2 14.5 85 1.5 SSW 17 28 9 15 - - 0.0
27/10:00pm 17.6 15.4 14.9 84 1.6 SSW 20 28 11 15 - - 0.0
27/09:30pm 17.5 15.4 14.8 84 1.6 SSW 19 26 10 14 - - 0.0
27/09:00pm 18.1 13.9 14.6 80 2.0 SSW 30 43 16 23 - - 0.0
27/08:30pm 18.9 15.8 15.6 81 2.0 S 26 39 14 21 - - 0.0
27/08:00pm 19.3 15.8 15.6 79 2.2 S 28 35 15 19 - - 0.0
27/07:30pm 19.5 16.9 15.8 79 2.2 S 24 39 13 21 - - 0.0
27/07:00pm 19.9 16.9 16.7 82 2.0 SSW 28 37 15 20 - - 0.0
27/06:30pm 20.7 18.2 17.1 80 2.2 SSW 26 37 14 20 - - 0.0
27/06:00pm 20.7 18.4 17.7 83 1.9 SSW 26 41 14 22 - - 0.0
27/05:30pm 21.8 18.4 17.6 77 2.6 SSW 32 48 17 26 - - 0.0
27/05:00pm 24.0 20.0 17.5 67 4.1 SSW 35 46 19 25 - - 0.0
27/04:30pm 24.9 20.7 17.1 62 4.9 SSW 35 48 19 26 - - 0.0
27/04:00pm 25.6 20.8 16.7 58 5.6 SSW 37 48 20 26 - - 0.0
27/03:30pm 28.5 25.0 17.4 51 7.1 SSW 32 52 17 28 - - 0.0
27/03:16pm 28.1 24.3 17.3 52 6.9 SW 33 52 18 28 - - 0.0
27/03:00pm 28.6 25.1 17.8 52 6.9 SW 33 50 18 27 - - 0.0
27/02:35pm 27.6 23.9 17.5 54 6.4 SSW 33 52 18 28 - - 0.0
27/02:30pm 28.1 24.5 17.6 53 6.7 SW 33 44 18 24 - - 0.0
27/02:00pm 30.5 27.4 18.9 50 7.6 SSW 33 46 18 25 - - 0.0
27/01:32pm 30.3 27.6 18.4 49 7.7 SW 30 48 16 26 - - 0.0
27/01:30pm 30.1 27.5 17.9 48 7.9 SW 28 43 15 23 - - 0.0
27/01:00pm 32.6 31.0 19.1 44 8.9 SW 26 43 14 23 - - 0.0
27/12:30pm 32.9 33.1 19.4 45 9.0 SW 17 30 9 16 - - 0.0
27/12:00pm 32.5 33.1 19.4 46 8.7 W 15 30 8 16 - - 0.0
27/11:30am 33.0 34.3 20.2 47 8.6 W 13 20 7 11 - - 0.0
27/11:00am 32.1 33.2 20.4 50 7.9 W 15 22 8 12 - - 0.0
27/10:30am 29.7 31.2 20.5 57 6.1 WNW 13 22 7 12 - - 0.0
27/10:00am 28.4 30.0 20.7 63 5.1 WNW 13 17 7 9 - - 0.0
27/09:30am 26.3 28.4 20.2 69 4.0 NNW 9 15 5 8 - - 0.0
27/09:00am 24.5 26.6 20.2 77 2.8 WNW 9 11 5 6 - - 4.0
27/08:30am 22.9 24.5 19.9 83 1.9 NW 11 15 6 8 - - 4.0
27/08:00am 21.7 24.1 20.0 90 1.1 NW 7 11 4 6 - - 4.0
27/07:30am 21.0 23.3 19.5 91 1.0 WNW 6 7 3 4 - - 4.0
27/07:00am 20.6 22.6 19.1 91 1.0 WNW 7 11 4 6 - - 4.0
27/06:30am 20.7 22.9 19.2 91 1.0 NW 6 11 3 6 - - 4.0
27/06:00am 20.4 21.8 18.7 90 1.1 NNW 9 13 5 7 - - 4.0
27/05:30am 20.2 21.1 18.5 90 1.1 N 11 19 6 10 - - 4.0
27/05:00am 19.9 21.2 18.4 91 0.9 N 9 15 5 8 - - 4.0
27/04:30am 18.9 20.4 17.7 93 0.7 N 6 6 3 3 - - 4.0
27/04:00am 18.2 20.6 17.0 93 0.7 CALM 0 0 0 0 - - 4.0
27/03:30am 17.7 19.9 16.4 92 0.8 CALM 0 0 0 0 - - 4.0
27/03:00am 17.8 20.0 16.5 92 0.8 CALM 0 6 0 3 - - 4.0
27/02:30am 18.3 19.4 17.0 92 0.8 WSW 7 11 4 6 - - 4.0
27/02:00am 18.1 19.6 16.6 91 0.9 NNE 4 6 2 3 - - 4.0
27/01:30am 18.1 20.3 16.6 91 0.9 CALM 0 0 0 0 - - 4.0
27/01:00am 18.4 20.7 16.7 90 1.0 CALM 0 0 0 0 - - 4.0
27/12:30am 18.7 21.1 16.9 89 1.1 CALM 0 0 0 0 - - 4.0
27/12:00am 19.3 21.0 17.1 87 1.3 ESE 4 6 2 3 - - 4.0
 
Date/Time
WST
Temp
°C
App
Temp
°C
Dew
Point
Rel
Hum
%
Delta-T
°C
Wind Press
QNH
hPa
Press
MSL
hPa
Rain
since 9 am
mm
Dir
 
Spd
km/h
Gust
km/h
Spd
kts
Gust
kts
26/11:30pm 19.7 21.5 17.3 86 1.5 SE 4 6 2 3 - - 4.0
26/11:00pm 20.0 21.3 17.2 84 1.7 SE 6 7 3 4 - - 4.0
26/10:30pm 20.5 21.4 17.5 83 1.9 ESE 9 11 5 6 - - 4.0
26/10:00pm 20.7 21.6 17.5 82 2.0 ESE 9 11 5 6 - - 4.0
26/09:30pm 21.0 21.5 17.4 80 2.2 E 11 15 6 8 - - 4.0
26/09:00pm 21.5 21.3 17.5 78 2.5 E 15 24 8 13 - - 4.0
26/08:30pm 21.5 21.0 17.7 79 2.4 E 17 24 9 13 - - 4.0
26/08:00pm 21.8 21.3 17.8 78 2.5 ESE 17 22 9 12 - - 4.0
26/07:30pm 21.9 21.9 18.1 79 2.4 ESE 15 20 8 11 - - 4.0
26/07:00pm 22.4 22.2 18.4 78 2.5 SE 17 22 9 12 - - 4.0
26/06:30pm 22.5 21.7 18.5 78 2.5 SE 20 28 11 15 - - 4.0
26/06:00pm 22.5 21.8 18.7 79 2.4 SE 20 28 11 15 - - 4.0
26/05:30pm 22.4 21.5 19.0 81 2.2 SE 22 35 12 19 - - 4.0
26/05:00pm 22.8 22.6 19.4 81 2.2 ESE 19 26 10 14 - - 4.0
26/04:30pm 22.1 21.6 19.1 83 1.9 S 20 32 11 17 - - 4.0
26/04:00pm 21.5 19.7 19.6 89 1.2 S 28 37 15 20 - - 4.0
26/03:30pm 21.9 20.8 18.7 82 2.0 SSW 22 37 12 20 - - 1.2
26/03:17pm 23.8 20.4 18.2 71 3.6 SSW 33 52 18 28 - - 0.0
26/03:00pm 26.0 20.4 17.9 61 5.2 SSW 44 57 24 31 - - 0.0
26/02:37pm 31.0 28.0 15.8 40 9.5 S 26 57 14 31 - - 0.0
26/02:34pm 33.6 31.9 14.6 31 11.8 SSW 17 46 9 25 - - 0.0
26/02:30pm 37.4 37.2 14.7 26 14.3 SW 9 19 5 10 - - 0.0
26/02:00pm 36.8 37.0 14.7 26 13.9 N 7 15 4 8 - - 0.0
26/01:30pm 37.7 37.0 15.5 27 14.2 WNW 13 20 7 11 - - 0.0
26/01:00pm 36.1 36.3 15.8 30 12.9 N 9 24 5 13 - - 0.0
26/12:30pm 36.2 36.5 16.9 32 12.5 NE 11 24 6 13 - - 0.0
26/12:00pm 34.8 36.3 17.5 35 11.2 NNW 6 13 3 7 - - 0.0
26/11:30am 33.3 34.7 17.9 40 10.0 ESE 7 13 4 7 - - 0.0
26/11:00am 31.4 32.6 19.1 48 8.1 ENE 11 17 6 9 - - 0.0
26/10:30am 28.4 30.2 18.8 56 6.2 NE 7 15 4 8 - - 0.0
26/10:00am 25.8 27.7 18.5 64 4.7 SE 6 9 3 5 - - 0.0
26/09:30am 23.3 25.1 18.2 73 3.2 E 6 9 3 5 - - 0.0
26/09:00am 22.4 23.7 18.4 78 2.5 ESE 9 11 5 6 - - 0.0
26/08:30am 21.5 22.6 18.1 81 2.1 ESE 9 11 5 6 - - 0.0
26/08:00am 21.0 22.5 18.0 83 1.9 ESE 7 11 4 6 - - 0.0
26/07:30am 20.8 22.5 18.0 84 1.8 SE 6 7 3 4 - - 0.0
26/07:00am 20.6 22.2 18.2 86 1.5 SSE 7 11 4 6 - - 0.0
26/06:30am 20.3 21.8 18.1 87 1.4 ESE 7 9 4 5 - - 0.0
26/06:00am 20.2 21.7 18.1 88 1.3 ESE 7 9 4 5 - - 0.0
26/05:30am 20.1 21.6 18.1 88 1.3 ESE 7 9 4 5 - - 0.0
26/05:00am 20.0 21.1 18.0 88 1.2 ENE 9 13 5 7 - - 0.0
26/04:30am 19.9 21.0 17.9 88 1.2 E 9 13 5 7 - - 0.0
26/04:00am 19.9 21.0 17.9 88 1.2 E 9 15 5 8 - - 0.0
26/03:30am 20.1 21.2 18.1 88 1.3 SSE 9 11 5 6 - - 0.0
26/03:00am 20.1 21.6 18.1 88 1.3 S 7 13 4 7 - - 0.0
26/02:30am 20.0 20.7 18.0 88 1.2 SSE 11 15 6 8 - - 0.0
26/02:00am 20.1 20.1 18.1 88 1.3 S 15 20 8 11 - - 0.0
26/01:30am 20.1 20.0 17.9 87 1.4 S 15 24 8 13 - - 0.0
26/01:00am 20.2 19.8 18.0 87 1.4 SSW 17 24 9 13 - - 0.0
26/12:30am 20.2 19.8 18.0 87 1.4 SSW 17 24 9 13 - - 0.0
26/12:00am 20.3 19.9 18.1 87 1.4 SW 17 26 9 14 - - 0.0
 
Date/Time
WST
Temp
°C
App
Temp
°C
Dew
Point
Rel
Hum
%
Delta-T
°C
Wind Press
QNH
hPa
Press
MSL
hPa
Rain
since 9 am
mm
Dir
 
Spd
km/h
Gust
km/h
Spd
kts
Gust
kts
25/11:30pm 20.4 20.7 18.0 86 1.5 SSW 13 20 7 11 - - 0.0
25/11:00pm 20.6 21.3 18.0 85 1.6 SSW 11 17 6 9 - - 0.0
25/10:30pm 20.9 21.2 17.9 83 1.9 SSW 13 20 7 11 - - 0.0
25/10:00pm 21.8 21.8 17.2 75 2.9 SW 13 19 7 10 - - 0.0
25/09:30pm 24.2 24.2 16.2 61 4.9 S 11 13 6 7 - - 0.0
25/09:00pm 24.2 24.1 15.9 59 5.1 SSE 11 15 6 8 - - 0.0
25/08:30pm 24.7 24.7 16.2 59 5.2 SE 11 15 6 8 - - 0.0
25/08:00pm 25.6 24.4 16.2 56 5.8 SSE 17 24 9 13 - - 0.0
25/07:30pm 25.9 24.6 15.9 54 6.2 S 17 24 9 13 - - 0.0
25/07:00pm 26.6 25.7 15.9 51 6.6 SSE 15 19 8 10 - - 0.0
25/06:30pm 28.6 26.9 16.2 47 7.8 SSE 20 28 11 15 - - 0.0
25/06:00pm 30.8 28.5 15.6 39 9.5 S 22 33 12 18 - - 0.0
25/05:30pm 32.7 30.8 15.7 36 10.7 SSE 20 30 11 16 - - 0.0
25/05:00pm 34.1 31.2 15.1 32 11.9 S 24 33 13 18 - - 0.0
25/04:30pm 32.3 30.0 16.6 39 10.0 S 24 32 13 17 - - 0.0
25/04:13pm 30.8 29.6 17.1 43 8.8 SSW 19 30 10 16 - - 0.0
25/04:00pm 35.9 34.7 12.8 25 14.1 WSW 11 24 6 13 - - 0.0
25/03:30pm 37.6 35.8 10.8 20 16.0 NNE 11 20 6 11 - - 0.0
25/03:00pm 37.5 36.6 11.5 21 15.7 NNW 7 13 4 7 - - 0.0
25/02:30pm 37.7 36.6 10.1 19 16.3 N 6 13 3 7 - - 0.0
25/02:00pm 38.8 37.2 10.2 18 17.0 N 9 20 5 11 - - 0.0
25/01:30pm 39.2 38.1 10.5 18 17.2 NNE 7 19 4 10 - - 0.0

Other Formats:

Comma delimited format used in spreadsheet applications
http://www.bom.gov.au/fwo/IDW60801/IDW60801.95639.axf

JavaScript Object Notation format (JSON) in row-major order
http://www.bom.gov.au/fwo/IDW60801/IDW60801.95639.json